createdAt,value
2018-07-20T00:03:55.937Z,48.05
2018-07-20T00:08:58.098Z,48.49
2018-07-20T00:14:00.255Z,47.71
2018-07-20T00:19:02.429Z,47.88
2018-07-20T00:24:04.583Z,48.08
2018-07-20T00:29:06.743Z,47.37
2018-07-20T00:34:08.891Z,47.20
2018-07-20T00:39:11.113Z,46.96
2018-07-20T00:44:13.260Z,47.33
2018-07-20T00:49:15.418Z,47.84
2018-07-20T00:54:17.581Z,47.72
2018-07-20T00:59:19.761Z,47.85
2018-07-20T01:04:21.944Z,48.34
2018-07-20T01:09:24.070Z,47.66
2018-07-20T01:14:26.187Z,48.67
2018-07-20T01:19:28.309Z,50.29
2018-07-20T01:24:30.463Z,53.19
2018-07-20T01:29:32.613Z,54.00
2018-07-20T01:34:41.612Z,55.29
2018-07-20T01:39:43.718Z,56.04
2018-07-20T01:44:45.875Z,57.12
2018-07-20T01:49:47.986Z,57.47
2018-07-20T01:54:50.171Z,58.03
2018-07-20T01:59:52.299Z,58.93
2018-07-20T02:04:54.434Z,58.00
2018-07-20T02:09:56.548Z,58.46
2018-07-20T02:14:59.203Z,59.52
2018-07-20T02:20:01.373Z,58.31
2018-07-20T02:25:03.570Z,58.99
2018-07-20T02:30:06.267Z,59.37
2018-07-20T02:35:08.427Z,60.28
2018-07-20T02:40:10.601Z,60.67
2018-07-20T02:45:12.777Z,60.89
2018-07-20T02:50:14.922Z,60.77
2018-07-20T02:55:17.113Z,60.61
2018-07-20T03:00:19.264Z,61.40
2018-07-20T03:05:21.411Z,61.65
2018-07-20T03:10:23.549Z,61.85
2018-07-20T03:15:25.660Z,62.07
2018-07-20T03:20:27.804Z,62.85
2018-07-20T03:25:29.970Z,62.15
2018-07-20T03:30:32.131Z,61.71
2018-07-20T03:35:34.274Z,61.31
2018-07-20T03:40:36.395Z,61.66
2018-07-20T03:45:38.520Z,61.16
2018-07-20T03:50:40.703Z,61.76
2018-07-20T03:55:42.827Z,62.24
2018-07-20T04:00:44.991Z,62.43
2018-07-20T04:05:47.098Z,62.64
2018-07-20T04:10:49.525Z,61.46
2018-07-20T04:15:51.658Z,60.70
2018-07-20T04:20:53.795Z,60.64
2018-07-20T04:25:55.957Z,60.47
2018-07-20T04:30:58.134Z,60.51
2018-07-20T04:36:00.276Z,61.36
2018-07-20T04:41:02.419Z,61.26
2018-07-20T04:46:04.563Z,62.22
2018-07-20T04:51:06.770Z,62.44
2018-07-20T04:56:08.930Z,63.00
2018-07-20T05:01:11.071Z,62.66
2018-07-20T05:06:13.193Z,62.57
2018-07-20T05:11:15.331Z,62.19
2018-07-20T05:16:17.494Z,62.14
2018-07-20T05:21:19.667Z,61.64
2018-07-20T05:26:21.815Z,61.93
2018-07-20T05:31:23.918Z,61.30
2018-07-20T05:36:26.075Z,60.84
2018-07-20T05:41:28.272Z,60.10
2018-07-20T05:46:30.386Z,59.20
2018-07-20T05:51:32.521Z,59.83
2018-07-20T05:56:34.659Z,59.17
2018-07-20T06:01:36.809Z,58.37
2018-07-20T06:06:38.927Z,57.62
2018-07-20T06:11:41.121Z,55.65
2018-07-20T06:16:43.266Z,54.48
2018-07-20T06:21:45.394Z,54.02
2018-07-20T06:26:47.566Z,53.54
2018-07-20T06:31:49.726Z,49.80
2018-07-20T06:36:51.886Z,46.40
2018-07-20T06:41:54.026Z,46.79
2018-07-20T06:46:56.211Z,47.51
2018-07-20T06:51:58.372Z,47.65
2018-07-20T06:57:00.564Z,46.49
2018-07-20T07:02:02.756Z,45.72
2018-07-20T07:07:05.746Z,45.65
2018-07-20T07:12:07.916Z,43.91
2018-07-20T07:17:10.305Z,42.96
2018-07-20T07:22:12.579Z,42.79
2018-07-20T07:27:14.801Z,41.22
2018-07-20T07:32:16.946Z,39.35
2018-07-20T07:37:19.089Z,39.08
2018-07-20T07:42:21.243Z,38.43
2018-07-20T07:47:23.413Z,36.97
2018-07-20T07:52:25.547Z,38.29
2018-07-20T07:57:27.674Z,38.06
2018-07-20T08:02:30.664Z,38.69
2018-07-20T08:07:32.817Z,38.11
2018-07-20T08:12:34.974Z,37.75
2018-07-20T08:17:37.128Z,36.14
2018-07-20T08:22:39.297Z,36.05
2018-07-20T08:27:41.521Z,35.82
2018-07-20T08:32:43.668Z,36.22
2018-07-20T08:37:45.850Z,36.38
2018-07-20T08:42:48.032Z,35.79
2018-07-20T08:47:50.211Z,34.64
2018-07-20T08:52:52.381Z,34.81
2018-07-20T08:57:54.567Z,34.12
2018-07-20T09:02:56.703Z,34.50
2018-07-20T09:07:58.910Z,33.56
2018-07-20T09:13:01.160Z,33.24
2018-07-20T09:18:03.304Z,33.88
2018-07-20T09:23:05.586Z,34.01
2018-07-20T09:28:07.754Z,32.69
2018-07-20T09:33:09.906Z,32.93
2018-07-20T09:38:12.089Z,32.63
2018-07-20T09:43:14.318Z,32.76
2018-07-20T09:48:16.493Z,32.08
2018-07-20T09:53:18.735Z,31.85
2018-07-20T09:58:20.903Z,32.28
2018-07-20T10:03:23.091Z,32.38
2018-07-20T10:08:25.205Z,31.53
2018-07-20T10:13:27.387Z,33.31
2018-07-20T10:18:29.532Z,32.91
2018-07-20T10:23:31.712Z,32.94
2018-07-20T10:28:33.966Z,33.31
2018-07-20T10:33:36.100Z,32.35
2018-07-20T10:38:38.281Z,30.47
2018-07-20T10:43:40.428Z,31.07
2018-07-20T10:48:43.338Z,32.75
2018-07-20T10:53:45.508Z,32.91
2018-07-20T10:58:47.636Z,31.30
2018-07-20T11:03:49.756Z,29.64
2018-07-20T11:08:51.965Z,29.26
2018-07-20T11:13:54.444Z,28.41
2018-07-20T11:18:56.644Z,29.19
2018-07-20T11:23:58.819Z,29.23
2018-07-20T11:29:01.106Z,28.64
2018-07-20T11:34:03.300Z,27.14
2018-07-20T11:39:07.161Z,27.70
2018-07-20T11:44:09.406Z,27.28
2018-07-20T11:49:11.607Z,27.01
2018-07-20T11:54:13.790Z,26.12
2018-07-20T11:59:16.014Z,27.04
2018-07-20T12:04:18.163Z,25.33
2018-07-20T12:09:20.330Z,25.88
2018-07-20T12:14:22.483Z,25.79
2018-07-20T12:19:24.628Z,24.40
2018-07-20T12:24:26.805Z,23.94
2018-07-20T12:29:28.965Z,23.34
2018-07-20T12:34:31.138Z,24.86
2018-07-20T12:39:33.295Z,25.07
2018-07-20T12:44:35.507Z,25.47
2018-07-20T12:49:37.684Z,26.07
2018-07-20T12:54:39.922Z,25.07
2018-07-20T12:59:42.104Z,24.41
2018-07-20T13:04:44.279Z,24.87
2018-07-20T13:09:46.458Z,24.21
2018-07-20T13:14:48.898Z,24.36
2018-07-20T13:19:51.422Z,23.43
2018-07-20T13:24:53.657Z,22.91
2018-07-20T13:29:55.840Z,22.92
2018-07-20T13:34:58.062Z,22.53
2018-07-20T13:40:00.292Z,22.76
2018-07-20T13:45:02.575Z,23.34
2018-07-20T13:50:04.938Z,23.28
2018-07-20T13:55:07.115Z,21.89
2018-07-20T14:00:09.380Z,21.50
2018-07-20T14:05:11.539Z,23.13
2018-07-20T14:10:13.723Z,21.90
2018-07-20T14:15:15.909Z,22.39
2018-07-20T14:20:18.062Z,21.84
2018-07-20T14:25:20.223Z,21.84
2018-07-20T14:30:22.396Z,21.54
2018-07-20T14:35:24.599Z,21.67
2018-07-20T14:40:26.796Z,22.50
2018-07-20T14:45:28.974Z,21.72
2018-07-20T14:50:31.117Z,22.25
2018-07-20T14:55:33.311Z,22.51
2018-07-20T15:00:35.472Z,23.15
2018-07-20T15:05:37.812Z,24.56
2018-07-20T15:10:40.023Z,24.94
2018-07-20T15:15:42.235Z,25.25
2018-07-20T15:20:44.437Z,24.88
2018-07-20T15:25:46.652Z,23.63
2018-07-20T15:30:48.921Z,25.31
2018-07-20T15:35:51.101Z,25.51
2018-07-20T15:40:53.339Z,24.92
2018-07-20T15:46:05.770Z,24.45
2018-07-20T15:50:57.695Z,25.25
2018-07-20T15:55:59.927Z,25.14
2018-07-20T16:01:02.169Z,25.64
2018-07-20T16:06:04.581Z,25.12
2018-07-20T16:11:06.789Z,26.27
2018-07-20T16:16:08.989Z,26.21
2018-07-20T16:21:11.158Z,26.33
2018-07-20T16:26:13.398Z,26.60
2018-07-20T16:31:15.539Z,25.64
2018-07-20T16:36:17.742Z,25.94
2018-07-20T16:41:19.918Z,26.74
2018-07-20T16:46:22.096Z,27.34
2018-07-20T16:51:24.283Z,27.21
2018-07-20T16:56:26.470Z,27.56
2018-07-20T17:01:28.630Z,27.03
2018-07-20T17:06:37.921Z,27.92
2018-07-20T17:11:40.505Z,27.96
2018-07-20T17:16:42.699Z,27.47
2018-07-20T17:21:44.895Z,27.64
2018-07-20T17:26:47.076Z,27.83
2018-07-20T17:31:49.336Z,28.48
2018-07-20T17:36:51.487Z,28.69
2018-07-20T17:41:53.690Z,28.62
2018-07-20T17:46:55.885Z,28.71
2018-07-20T17:51:58.075Z,29.23
2018-07-20T17:57:00.249Z,29.58
2018-07-20T18:02:02.430Z,29.54
2018-07-20T18:07:04.670Z,30.73
2018-07-20T18:12:06.864Z,31.73
2018-07-20T18:17:09.096Z,31.96
2018-07-20T18:22:11.274Z,32.96
2018-07-20T18:27:13.981Z,33.69
2018-07-20T18:32:16.112Z,33.71
2018-07-20T18:37:18.312Z,34.24
2018-07-20T18:42:20.506Z,34.44
2018-07-20T18:47:22.815Z,35.20
2018-07-20T18:52:25.000Z,35.44
2018-07-20T18:57:27.239Z,35.20
2018-07-20T19:02:29.457Z,35.69
2018-07-20T19:07:31.635Z,36.03
2018-07-20T19:12:33.822Z,36.41
2018-07-20T19:17:36.055Z,36.35
2018-07-20T19:22:38.267Z,35.83
2018-07-20T19:27:40.479Z,36.40
2018-07-20T19:32:42.717Z,37.03
2018-07-20T19:37:44.960Z,37.95
2018-07-20T19:42:47.189Z,37.84
2018-07-20T19:47:49.446Z,37.27
2018-07-20T19:52:51.725Z,38.08
2018-07-20T19:57:53.925Z,37.66
2018-07-20T20:02:56.136Z,37.86
2018-07-20T20:07:58.377Z,38.71
2018-07-20T20:13:00.580Z,38.42
2018-07-20T20:18:02.844Z,38.83
2018-07-20T20:23:05.136Z,38.59
2018-07-20T20:28:07.364Z,39.22
2018-07-20T20:33:09.688Z,39.90
2018-07-20T20:38:11.916Z,40.16
2018-07-20T20:43:14.139Z,41.07
2018-07-20T20:48:16.412Z,41.82
2018-07-20T20:53:18.583Z,42.49
2018-07-20T20:58:20.842Z,43.12
2018-07-20T21:03:23.048Z,43.70
2018-07-20T21:08:25.278Z,43.27
2018-07-20T21:13:27.464Z,42.86
2018-07-20T21:18:29.701Z,42.70
2018-07-20T21:23:31.916Z,43.05
2018-07-20T21:28:34.155Z,43.57
2018-07-20T21:33:36.420Z,44.44
2018-07-20T21:38:38.622Z,44.23
2018-07-20T21:43:40.884Z,44.12
2018-07-20T21:48:43.132Z,43.43
2018-07-20T21:53:45.348Z,43.38
2018-07-20T21:58:47.546Z,43.07
2018-07-20T22:03:49.775Z,43.60
2018-07-20T22:08:51.984Z,44.18
2018-07-20T22:13:54.227Z,44.96
2018-07-20T22:18:56.452Z,46.31
2018-07-20T22:23:58.672Z,46.63
2018-07-20T22:29:00.850Z,48.30
2018-07-20T22:34:03.113Z,48.62
2018-07-20T22:39:08.200Z,49.52
2018-07-20T22:44:10.384Z,50.40
2018-07-20T22:49:12.575Z,51.32
2018-07-20T22:54:14.724Z,51.46
2018-07-20T22:59:16.889Z,51.22
2018-07-20T23:04:19.047Z,51.43
2018-07-20T23:09:21.219Z,51.72
2018-07-20T23:14:23.386Z,51.02
2018-07-20T23:19:25.562Z,50.22
2018-07-20T23:24:27.720Z,50.78
2018-07-20T23:29:29.891Z,51.12
2018-07-20T23:34:32.040Z,52.02
2018-07-20T23:39:34.210Z,52.14
2018-07-20T23:44:36.414Z,52.91
2018-07-20T23:49:38.557Z,52.88
2018-07-20T23:54:40.721Z,53.59
2018-07-20T23:59:42.961Z,53.33
